createdAt,value
2023-06-07T00:02:26.418Z,20.60
2023-06-07T00:04:58.670Z,20.79
2023-06-07T00:07:26.822Z,21.00
2023-06-07T00:09:54.458Z,20.96
2023-06-07T00:12:21.990Z,20.89
2023-06-07T00:14:49.422Z,20.83
2023-06-07T00:17:17.169Z,20.93
2023-06-07T00:19:44.635Z,20.65
2023-06-07T00:22:14.126Z,20.65
2023-06-07T00:24:41.894Z,20.77
2023-06-07T00:27:09.390Z,20.85
2023-06-07T00:29:37.078Z,21.03
2023-06-07T00:32:05.038Z,20.49
2023-06-07T00:34:32.511Z,21.43
2023-06-07T00:36:59.997Z,20.97
2023-06-07T00:39:29.466Z,21.51
2023-06-07T00:41:57.352Z,21.38
2023-06-07T00:44:24.949Z,20.97
2023-06-07T00:46:53.530Z,21.67
2023-06-07T00:49:21.248Z,21.58
2023-06-07T00:51:48.877Z,21.07
2023-06-07T00:54:18.490Z,21.55
2023-06-07T00:56:50.907Z,21.15
2023-06-07T00:59:19.653Z,20.67
2023-06-07T01:01:49.826Z,20.81
2023-06-07T01:04:20.534Z,21.42
2023-06-07T01:06:48.208Z,21.42
2023-06-07T01:09:17.318Z,21.92
2023-06-07T01:11:48.619Z,21.32
2023-06-07T01:14:18.526Z,21.43
2023-06-07T01:16:49.737Z,21.35
2023-06-07T01:19:22.336Z,21.53
2023-06-07T01:21:51.512Z,21.48
2023-06-07T01:24:21.775Z,21.83
2023-06-07T01:26:53.915Z,21.95
2023-06-07T01:29:22.420Z,21.53
2023-06-07T01:31:51.698Z,20.95
2023-06-07T01:34:20.517Z,20.97
2023-06-07T01:36:49.748Z,20.66
2023-06-07T01:39:22.247Z,20.52
2023-06-07T01:41:52.494Z,20.85
2023-06-07T01:44:21.371Z,21.46
2023-06-07T01:46:49.285Z,20.95
2023-06-07T01:49:20.377Z,20.86
2023-06-07T01:51:47.810Z,20.93
2023-06-07T01:54:17.228Z,21.19
2023-06-07T01:56:54.345Z,21.09
2023-06-07T01:59:32.285Z,21.44
2023-06-07T02:02:06.364Z,21.75
2023-06-07T02:04:38.389Z,20.83
2023-06-07T02:07:10.652Z,21.22
2023-06-07T02:09:40.984Z,21.23
2023-06-07T02:12:12.336Z,21.47
2023-06-07T02:14:39.954Z,21.38
2023-06-07T02:17:08.618Z,21.74
2023-06-07T02:19:36.814Z,21.26
2023-06-07T02:22:04.525Z,21.03
2023-06-07T02:24:32.093Z,20.92
2023-06-07T02:26:59.552Z,21.22
2023-06-07T02:29:28.296Z,21.45
2023-06-07T02:31:59.036Z,21.08
2023-06-07T02:34:27.790Z,21.73
2023-06-07T02:36:56.450Z,21.71
2023-06-07T02:39:23.879Z,20.59
2023-06-07T02:41:51.507Z,21.42
2023-06-07T02:44:18.954Z,21.50
2023-06-07T02:46:47.724Z,21.22
2023-06-07T02:49:15.263Z,21.61
2023-06-07T02:51:43.308Z,21.84
2023-06-07T02:54:10.864Z,21.97
2023-06-07T02:56:38.353Z,21.67
2023-06-07T02:59:06.132Z,21.44
2023-06-07T03:01:34.477Z,21.07
2023-06-07T03:04:03.379Z,21.27
2023-06-07T03:06:31.044Z,21.54
2023-06-07T03:08:58.609Z,21.23
2023-06-07T03:11:26.437Z,21.33
2023-06-07T03:13:53.905Z,21.29
2023-06-07T03:16:23.586Z,21.32
2023-06-07T03:18:51.251Z,21.13
2023-06-07T03:21:20.261Z,21.06
2023-06-07T03:23:47.778Z,20.88
2023-06-07T03:26:15.335Z,21.14
2023-06-07T03:28:42.811Z,20.59
2023-06-07T03:31:10.291Z,20.39
2023-06-07T03:33:37.896Z,20.38
2023-06-07T03:36:08.779Z,20.85
2023-06-07T03:38:37.517Z,21.00
2023-06-07T03:41:04.976Z,21.12
2023-06-07T03:43:32.455Z,20.45
2023-06-07T03:45:59.942Z,20.63
2023-06-07T03:48:27.597Z,20.82
2023-06-07T03:50:55.099Z,20.54
2023-06-07T03:53:22.634Z,20.78
2023-06-07T03:55:51.601Z,20.83
2023-06-07T03:58:19.744Z,20.82
2023-06-07T04:00:49.398Z,21.23
2023-06-07T04:03:16.932Z,21.03
2023-06-07T04:05:44.542Z,21.71
2023-06-07T04:08:12.533Z,21.13
2023-06-07T04:10:42.095Z,21.09
2023-06-07T04:13:11.142Z,20.50
2023-06-07T04:15:38.696Z,20.28
2023-06-07T04:18:06.401Z,20.77
2023-06-07T04:20:33.964Z,20.58
2023-06-07T04:23:01.528Z,20.11
2023-06-07T04:25:33.607Z,20.21
2023-06-07T04:28:01.708Z,20.34
2023-06-07T04:30:35.553Z,21.31
2023-06-07T04:33:05.709Z,20.74
2023-06-07T04:35:34.806Z,20.88
2023-06-07T04:38:03.834Z,21.18
2023-06-07T04:40:31.590Z,20.67
2023-06-07T04:43:06.337Z,21.05
2023-06-07T04:45:37.672Z,20.83
2023-06-07T04:48:06.274Z,20.92
2023-06-07T04:50:34.405Z,20.90
2023-06-07T04:53:03.762Z,20.71
2023-06-07T04:55:35.285Z,20.84
2023-06-07T04:58:04.575Z,20.81
2023-06-07T05:00:32.063Z,21.16
2023-06-07T05:03:07.378Z,20.69
2023-06-07T05:05:35.015Z,21.30
2023-06-07T05:08:02.961Z,21.34
2023-06-07T05:10:30.520Z,21.35
2023-06-07T05:12:57.982Z,20.68
2023-06-07T05:15:25.900Z,21.22
2023-06-07T05:17:54.880Z,21.16
2023-06-07T05:20:25.916Z,21.15
2023-06-07T05:22:53.386Z,21.67
2023-06-07T05:25:21.255Z,22.01
2023-06-07T05:28:00.251Z,21.53
2023-06-07T05:30:38.654Z,21.40
2023-06-07T05:33:06.689Z,21.62
2023-06-07T05:35:35.584Z,22.42
2023-06-07T05:38:03.121Z,21.82
2023-06-07T05:40:30.695Z,22.34
2023-06-07T05:42:58.458Z,22.42
2023-06-07T05:45:26.384Z,22.58
2023-06-07T05:47:53.891Z,21.60
2023-06-07T05:50:22.080Z,21.90
2023-06-07T05:52:57.405Z,22.31
2023-06-07T05:55:26.624Z,22.44
2023-06-07T05:57:54.255Z,22.97
2023-06-07T06:00:22.239Z,22.13
2023-06-07T06:02:49.851Z,22.63
2023-06-07T06:05:17.827Z,22.68
2023-06-07T06:07:45.414Z,23.36
2023-06-07T06:10:14.329Z,23.30
2023-06-07T06:12:41.788Z,21.85
2023-06-07T06:15:09.799Z,22.65
2023-06-07T06:17:37.405Z,22.39
2023-06-07T06:20:05.723Z,22.53
2023-06-07T06:22:33.431Z,22.46
2023-06-07T06:25:00.969Z,22.13
2023-06-07T06:27:29.856Z,22.81
2023-06-07T06:29:57.534Z,22.34
2023-06-07T06:32:25.028Z,22.51
2023-06-07T06:34:55.117Z,22.42
2023-06-07T06:37:22.614Z,22.92
2023-06-07T06:39:52.237Z,22.48
2023-06-07T06:42:19.772Z,22.39
2023-06-07T06:44:48.618Z,22.23
2023-06-07T06:47:16.206Z,22.30
2023-06-07T06:49:43.774Z,22.93
2023-06-07T06:52:11.656Z,22.53
2023-06-07T06:54:39.117Z,22.60
2023-06-07T06:57:09.192Z,22.63
2023-06-07T06:59:38.533Z,22.38
2023-06-07T07:02:07.771Z,22.48
2023-06-07T07:04:36.055Z,22.49
2023-06-07T07:07:03.865Z,22.99
2023-06-07T07:09:32.414Z,24.01
2023-06-07T07:11:59.904Z,23.76
2023-06-07T07:14:27.426Z,23.31
2023-06-07T07:16:55.130Z,23.38
2023-06-07T07:19:24.002Z,23.43
2023-06-07T07:21:52.246Z,23.24
2023-06-07T07:24:20.088Z,22.82
2023-06-07T07:26:47.640Z,23.62
2023-06-07T07:29:15.095Z,23.50
2023-06-07T07:31:42.617Z,23.01
2023-06-07T07:34:12.197Z,23.12
2023-06-07T07:36:41.760Z,24.21
2023-06-07T07:39:09.520Z,24.38
2023-06-07T07:41:37.711Z,24.54
2023-06-07T07:44:05.455Z,24.65
2023-06-07T07:46:32.948Z,24.09
2023-06-07T07:49:00.895Z,24.15
2023-06-07T07:51:28.338Z,23.76
2023-06-07T07:53:57.908Z,24.54
2023-06-07T07:56:26.059Z,24.24
2023-06-07T07:58:53.496Z,24.55
2023-06-07T08:01:21.611Z,24.12
2023-06-07T08:03:49.521Z,24.38
2023-06-07T08:06:18.240Z,24.43
2023-06-07T08:08:47.698Z,24.39
2023-06-07T08:11:16.613Z,24.16
2023-06-07T08:13:44.134Z,23.81
2023-06-07T08:16:12.088Z,24.15
2023-06-07T08:18:40.230Z,25.71
2023-06-07T08:21:07.699Z,25.33
2023-06-07T08:23:35.221Z,25.35
2023-06-07T08:26:03.455Z,24.90
2023-06-07T08:28:32.245Z,25.14
2023-06-07T08:30:59.780Z,25.58
2023-06-07T08:33:27.321Z,25.47
2023-06-07T08:35:54.839Z,26.37
2023-06-07T08:38:22.347Z,26.60
2023-06-07T08:40:49.899Z,25.80
2023-06-07T08:43:17.491Z,25.38
2023-06-07T08:45:46.360Z,24.87
2023-06-07T08:48:15.065Z,24.89
2023-06-07T08:50:45.299Z,24.93
2023-06-07T08:53:15.948Z,24.65
2023-06-07T08:55:44.544Z,24.83
2023-06-07T08:58:13.143Z,25.08
2023-06-07T09:00:40.773Z,24.84
2023-06-07T09:03:09.664Z,25.06
2023-06-07T09:05:37.387Z,24.82
2023-06-07T09:08:05.684Z,25.53
2023-06-07T09:10:33.208Z,25.28
2023-06-07T09:13:00.681Z,25.71
2023-06-07T09:15:30.771Z,25.38
2023-06-07T09:18:01.074Z,25.66
2023-06-07T09:20:32.522Z,26.01
2023-06-07T09:23:05.528Z,26.08
2023-06-07T09:25:34.164Z,26.11
2023-06-07T09:28:04.659Z,25.73
2023-06-07T09:30:32.172Z,25.76
2023-06-07T09:32:59.682Z,26.39
2023-06-07T09:35:27.425Z,25.91
2023-06-07T09:37:56.856Z,25.70
2023-06-07T09:40:25.459Z,25.67
2023-06-07T09:43:00.910Z,25.99
2023-06-07T09:45:29.288Z,25.78
2023-06-07T09:48:04.951Z,26.22
2023-06-07T09:50:32.994Z,26.37
2023-06-07T09:53:03.086Z,26.30
2023-06-07T09:55:31.703Z,26.50
2023-06-07T09:57:59.403Z,27.09
2023-06-07T10:00:28.527Z,26.79
2023-06-07T10:03:07.178Z,26.33
2023-06-07T10:05:35.362Z,26.29
2023-06-07T10:08:05.773Z,26.65
2023-06-07T10:10:35.801Z,26.53
2023-06-07T10:13:06.100Z,27.36
2023-06-07T10:15:36.014Z,26.93
2023-06-07T10:18:13.557Z,26.85
2023-06-07T10:20:42.996Z,26.93
2023-06-07T10:23:15.926Z,26.91
2023-06-07T10:25:47.994Z,27.00
2023-06-07T10:28:21.580Z,26.73
2023-06-07T10:30:55.084Z,27.77
2023-06-07T10:33:26.306Z,27.11
2023-06-07T10:35:56.101Z,28.41
2023-06-07T10:38:25.536Z,27.53
2023-06-07T10:40:54.034Z,26.84
2023-06-07T10:43:22.645Z,27.12
2023-06-07T10:45:50.208Z,27.61
2023-06-07T10:48:35.619Z,28.21
2023-06-07T10:51:03.469Z,27.17
2023-06-07T10:53:57.331Z,27.91
2023-06-07T10:56:30.445Z,27.31
2023-06-07T10:58:59.156Z,28.56
2023-06-07T11:01:27.745Z,28.27
2023-06-07T11:03:55.582Z,28.17
2023-06-07T11:06:23.253Z,28.10
2023-06-07T11:08:51.971Z,28.47
2023-06-07T11:11:52.016Z,27.24
2023-06-07T11:14:19.646Z,27.55
2023-06-07T11:16:47.233Z,27.87
2023-06-07T11:19:18.224Z,27.57
2023-06-07T11:22:07.781Z,27.79
2023-06-07T11:24:38.073Z,27.54
2023-06-07T11:27:15.142Z,27.74
2023-06-07T11:29:44.286Z,28.35
2023-06-07T11:32:12.977Z,28.11
2023-06-07T11:34:40.596Z,27.40
2023-06-07T11:37:09.649Z,27.62
2023-06-07T11:39:37.189Z,28.46
2023-06-07T11:42:06.073Z,28.40
2023-06-07T11:44:36.391Z,28.01
2023-06-07T11:47:06.995Z,28.65
2023-06-07T11:49:38.917Z,27.88
2023-06-07T11:52:07.940Z,28.29
2023-06-07T11:54:36.465Z,28.26
2023-06-07T11:57:04.160Z,28.09
2023-06-07T11:59:32.252Z,27.88
2023-06-07T12:02:01.711Z,28.37
2023-06-07T12:04:29.384Z,27.71
2023-06-07T12:06:57.014Z,28.07
2023-06-07T12:09:24.519Z,27.99
2023-06-07T12:11:54.653Z,27.90
2023-06-07T12:14:32.494Z,28.04
2023-06-07T12:17:02.666Z,27.73
2023-06-07T12:19:30.599Z,27.99
2023-06-07T12:22:09.502Z,27.57
2023-06-07T12:24:41.085Z,27.65
2023-06-07T12:27:13.013Z,27.49
2023-06-07T12:29:41.402Z,27.60
2023-06-07T12:32:11.148Z,28.08
2023-06-07T12:34:44.396Z,28.18
2023-06-07T12:37:12.239Z,28.04
2023-06-07T12:39:39.784Z,28.59
2023-06-07T12:42:08.529Z,28.43
2023-06-07T12:44:36.184Z,28.43
2023-06-07T12:47:03.943Z,28.08
2023-06-07T12:49:32.865Z,28.71
2023-06-07T12:52:00.690Z,28.67
2023-06-07T12:54:28.288Z,28.23
2023-06-07T12:56:56.536Z,28.67
2023-06-07T12:59:23.992Z,28.57
2023-06-07T13:01:51.914Z,28.42
2023-06-07T13:04:19.424Z,29.01
2023-06-07T13:06:48.252Z,28.77
2023-06-07T13:09:15.812Z,29.36
2023-06-07T13:11:44.279Z,29.57
2023-06-07T13:14:11.826Z,29.88
2023-06-07T13:16:39.665Z,29.74
2023-06-07T13:19:07.289Z,28.89
2023-06-07T13:21:34.752Z,28.84
2023-06-07T13:24:03.665Z,28.53
2023-06-07T13:26:31.421Z,28.96
2023-06-07T13:28:58.926Z,28.08
2023-06-07T13:31:27.189Z,28.32
2023-06-07T13:33:54.681Z,28.13
2023-06-07T13:36:22.139Z,28.91
2023-06-07T13:38:49.831Z,29.07
2023-06-07T13:41:18.659Z,29.04
2023-06-07T13:44:03.456Z,28.17
2023-06-07T13:46:36.247Z,29.07
2023-06-07T13:49:03.786Z,28.19
2023-06-07T13:51:31.428Z,28.02
2023-06-07T13:53:59.312Z,29.03
2023-06-07T13:56:28.371Z,29.31
2023-06-07T13:58:59.043Z,29.43
2023-06-07T14:01:28.176Z,28.58
2023-06-07T14:03:56.693Z,28.19
2023-06-07T14:06:24.588Z,28.61
2023-06-07T14:08:52.073Z,28.33
2023-06-07T14:11:19.644Z,28.26
2023-06-07T14:13:48.497Z,28.50
2023-06-07T14:16:16.140Z,29.40
2023-06-07T14:18:43.604Z,28.82
2023-06-07T14:21:11.099Z,28.65
2023-06-07T14:23:38.635Z,28.66
2023-06-07T14:26:06.114Z,28.38
2023-06-07T14:28:33.613Z,29.03
2023-06-07T14:31:02.482Z,29.42
2023-06-07T14:33:30.056Z,28.95
2023-06-07T14:35:57.496Z,28.72
2023-06-07T14:38:24.982Z,27.99
2023-06-07T14:40:53.048Z,28.37
2023-06-07T14:43:20.562Z,28.27
2023-06-07T14:45:48.054Z,28.83
2023-06-07T14:48:16.859Z,29.68
2023-06-07T14:50:44.547Z,29.86
2023-06-07T14:53:12.114Z,29.76
2023-06-07T14:55:39.600Z,30.16
2023-06-07T14:58:07.160Z,29.72
2023-06-07T15:00:35.890Z,29.62
2023-06-07T15:03:03.644Z,29.40
2023-06-07T15:05:34.781Z,29.77
2023-06-07T15:08:04.623Z,28.82
2023-06-07T15:10:32.091Z,28.75
2023-06-07T15:13:00.033Z,28.43
2023-06-07T15:15:28.164Z,28.71
2023-06-07T15:17:57.772Z,28.86
2023-06-07T15:20:25.952Z,28.48
2023-06-07T15:22:54.849Z,29.07
2023-06-07T15:25:22.470Z,29.31
2023-06-07T15:27:49.971Z,28.46
2023-06-07T15:30:17.626Z,28.72
2023-06-07T15:32:45.199Z,28.85
2023-06-07T15:35:13.296Z,28.47
2023-06-07T15:37:41.091Z,28.84
2023-06-07T15:40:10.758Z,28.65
2023-06-07T15:42:39.306Z,28.33
2023-06-07T15:45:08.090Z,28.54
2023-06-07T15:47:35.640Z,28.37
2023-06-07T15:50:03.400Z,28.56
2023-06-07T15:52:31.175Z,29.02
2023-06-07T15:54:58.658Z,29.27
2023-06-07T15:57:27.611Z,28.55
2023-06-07T16:00:04.652Z,28.36
2023-06-07T16:02:32.426Z,28.26
2023-06-07T16:05:33.612Z,28.84
2023-06-07T16:11:29.896Z,28.74
2023-06-07T16:13:58.694Z,28.10
2023-06-07T16:16:29.291Z,28.05
2023-06-07T16:19:10.535Z,28.35
2023-06-07T16:21:39.418Z,29.24
2023-06-07T16:24:13.136Z,28.58
2023-06-07T16:26:40.995Z,28.25
2023-06-07T16:29:09.907Z,28.75
2023-06-07T16:31:41.043Z,28.55
2023-06-07T16:34:08.549Z,28.01
2023-06-07T16:36:38.498Z,28.17
2023-06-07T16:39:06.954Z,28.26
2023-06-07T16:41:37.037Z,28.41
2023-06-07T16:44:05.939Z,28.04
2023-06-07T16:46:34.829Z,28.56
2023-06-07T16:49:02.363Z,28.47
2023-06-07T16:51:29.809Z,28.14
2023-06-07T16:53:57.281Z,27.92
2023-06-07T16:56:24.751Z,28.12
2023-06-07T16:58:52.211Z,28.34
2023-06-07T17:01:19.717Z,28.41
2023-06-07T17:03:48.654Z,28.21
2023-06-07T17:06:17.262Z,28.48
2023-06-07T17:08:46.363Z,27.79
2023-06-07T17:11:16.186Z,28.04
2023-06-07T17:13:44.982Z,28.21
2023-06-07T17:16:13.725Z,28.14
2023-06-07T17:18:41.301Z,27.77
2023-06-07T17:21:10.901Z,28.29
2023-06-07T17:23:38.369Z,28.76
2023-06-07T17:26:07.692Z,28.19
2023-06-07T17:28:43.408Z,28.03
2023-06-07T17:31:10.937Z,27.91
2023-06-07T17:33:41.647Z,27.58
2023-06-07T17:36:11.114Z,27.96
2023-06-07T17:38:38.777Z,28.12
2023-06-07T17:41:06.400Z,28.25
2023-06-07T17:43:33.876Z,27.96
2023-06-07T17:46:01.408Z,27.58
2023-06-07T17:48:29.031Z,27.69
2023-06-07T17:50:56.496Z,27.86
2023-06-07T17:53:25.364Z,27.76
2023-06-07T17:55:52.850Z,27.63
2023-06-07T17:58:20.552Z,27.43
2023-06-07T18:00:48.082Z,27.38
2023-06-07T18:03:20.381Z,27.70
2023-06-07T18:05:48.064Z,27.68
2023-06-07T18:08:15.852Z,27.53
2023-06-07T18:10:45.186Z,27.84
2023-06-07T18:13:12.627Z,28.11
2023-06-07T18:15:40.133Z,27.78
2023-06-07T18:18:07.799Z,27.40
2023-06-07T18:20:36.051Z,28.21
2023-06-07T18:23:06.063Z,27.92
2023-06-07T18:25:33.650Z,27.88
2023-06-07T18:28:02.464Z,27.93
2023-06-07T18:30:30.240Z,27.91
2023-06-07T18:32:58.324Z,27.61
2023-06-07T18:35:26.041Z,27.38
2023-06-07T18:37:53.560Z,27.20
2023-06-07T18:40:23.793Z,27.20
2023-06-07T18:42:51.286Z,27.07
2023-06-07T18:45:25.501Z,26.93
2023-06-07T18:47:53.636Z,26.75
2023-06-07T18:50:21.729Z,26.42
2023-06-07T18:52:49.269Z,26.46
2023-06-07T18:55:16.740Z,26.38
2023-06-07T18:57:44.235Z,26.93
2023-06-07T19:00:12.793Z,26.44
2023-06-07T19:02:42.307Z,26.37
2023-06-07T19:05:10.475Z,26.21
2023-06-07T19:07:38.238Z,26.02
2023-06-07T19:10:06.369Z,25.69
2023-06-07T19:12:33.980Z,25.57
2023-06-07T19:15:01.635Z,25.93
2023-06-07T19:17:29.244Z,26.49
2023-06-07T19:20:00.523Z,25.57
2023-06-07T19:22:28.333Z,25.35
2023-06-07T19:24:55.886Z,25.47
2023-06-07T19:27:28.253Z,25.40
2023-06-07T19:29:55.961Z,25.22
2023-06-07T19:32:23.621Z,25.16
2023-06-07T19:34:54.094Z,25.45
2023-06-07T19:37:23.377Z,25.64
2023-06-07T19:39:51.082Z,25.83
2023-06-07T19:42:21.013Z,25.60
2023-06-07T19:44:50.548Z,26.23
2023-06-07T19:47:32.300Z,26.75
2023-06-07T19:49:59.892Z,27.09
2023-06-07T19:52:28.925Z,25.86
2023-06-07T19:54:56.686Z,25.98
2023-06-07T19:57:24.540Z,26.67
2023-06-07T19:59:52.124Z,26.80
2023-06-07T20:02:19.693Z,26.08
2023-06-07T20:04:47.796Z,25.77
2023-06-07T20:07:15.400Z,25.24
2023-06-07T20:09:44.357Z,25.21
2023-06-07T20:12:12.958Z,25.08
2023-06-07T20:14:41.099Z,25.22
2023-06-07T20:17:10.417Z,25.50
2023-06-07T20:19:38.408Z,24.72
2023-06-07T20:22:06.707Z,25.07
2023-06-07T20:24:34.315Z,25.33
2023-06-07T20:27:05.237Z,24.77
2023-06-07T20:29:32.743Z,25.43
2023-06-07T20:32:02.872Z,25.61
2023-06-07T20:34:30.674Z,24.58
2023-06-07T20:36:58.203Z,24.81
2023-06-07T20:39:25.803Z,24.31
2023-06-07T20:41:53.475Z,24.78
2023-06-07T20:44:22.343Z,25.05
2023-06-07T20:46:50.061Z,24.79
2023-06-07T20:49:17.576Z,24.77
2023-06-07T20:51:45.132Z,24.62
2023-06-07T20:54:12.735Z,24.69
2023-06-07T20:56:40.308Z,25.21
2023-06-07T20:59:08.481Z,24.93
2023-06-07T21:01:37.973Z,24.19
2023-06-07T21:04:06.416Z,24.93
2023-06-07T21:06:34.239Z,24.81
2023-06-07T21:09:01.901Z,25.19
2023-06-07T21:11:29.415Z,24.82
2023-06-07T21:13:56.962Z,25.34
2023-06-07T21:16:24.624Z,24.65
2023-06-07T21:18:53.420Z,25.17
2023-06-07T21:21:20.981Z,24.15
2023-06-07T21:23:48.629Z,24.10
2023-06-07T21:26:16.243Z,24.09
2023-06-07T21:28:43.946Z,25.17
2023-06-07T21:31:11.489Z,24.76
2023-06-07T21:33:39.231Z,24.35
2023-06-07T21:36:08.439Z,24.43
2023-06-07T21:38:35.970Z,24.93
2023-06-07T21:41:03.492Z,24.43
2023-06-07T21:43:31.037Z,23.74
2023-06-07T21:45:58.722Z,24.21
2023-06-07T21:48:26.258Z,24.02
2023-06-07T21:50:53.817Z,24.01
2023-06-07T21:53:22.793Z,24.15
2023-06-07T21:55:50.830Z,23.98
2023-06-07T21:58:18.324Z,23.62
2023-06-07T22:00:46.988Z,23.78
2023-06-07T22:03:14.574Z,23.46
2023-06-07T22:05:42.066Z,24.39
2023-06-07T22:08:10.090Z,24.15
2023-06-07T22:10:40.152Z,23.78
2023-06-07T22:13:07.683Z,24.02
2023-06-07T22:15:35.240Z,23.55
2023-06-07T22:18:04.649Z,24.17
2023-06-07T22:20:33.779Z,23.98
2023-06-07T22:23:02.435Z,24.70
2023-06-07T22:25:39.991Z,23.90
2023-06-07T22:28:13.576Z,23.96
2023-06-07T22:30:42.359Z,24.27
2023-06-07T22:33:10.679Z,24.25
2023-06-07T22:35:40.610Z,24.55
2023-06-07T22:38:13.304Z,23.79
2023-06-07T22:40:41.841Z,24.38
2023-06-07T22:43:10.854Z,24.05
2023-06-07T22:45:38.635Z,24.87
2023-06-07T22:48:10.494Z,24.48
2023-06-07T22:50:39.555Z,24.11
2023-06-07T22:53:08.345Z,24.30
2023-06-07T22:55:36.936Z,24.45
2023-06-07T22:58:06.129Z,24.36
2023-06-07T23:00:36.485Z,24.71
2023-06-07T23:03:04.929Z,24.75
2023-06-07T23:05:33.640Z,24.41
2023-06-07T23:08:01.200Z,24.65
2023-06-07T23:10:36.269Z,24.82
2023-06-07T23:13:09.279Z,24.19
2023-06-07T23:15:43.364Z,24.37
2023-06-07T23:18:12.327Z,24.27
2023-06-07T23:20:42.041Z,23.71
2023-06-07T23:23:11.120Z,24.12
2023-06-07T23:25:39.042Z,24.20
2023-06-07T23:28:07.099Z,24.04
2023-06-07T23:30:35.394Z,24.06
2023-06-07T23:33:04.662Z,23.99
2023-06-07T23:35:32.254Z,24.38
2023-06-07T23:38:00.808Z,24.33
2023-06-07T23:40:28.582Z,23.84
2023-06-07T23:42:57.495Z,23.75
2023-06-07T23:45:25.432Z,23.77
2023-06-07T23:47:53.040Z,23.67
2023-06-07T23:50:21.946Z,23.83
2023-06-07T23:52:49.424Z,23.87
2023-06-07T23:55:16.922Z,23.89
2023-06-07T23:57:44.410Z,24.05
